Terminal Aerodrome Forecast
Issued by NWS

Home | Current Version | Previous Version | Text Only | Print | Product List | Glossary On
Versions: 1 2 3 4 5 6 7 8 9 10 11 12 13 14 15 16 17 18 19
000
FTUS43 KDLH 280500
TAFHYR
TAF
KHYR 280540Z 2806/2906 27004KT P6SM SCT025 OVC050
     FM280800 29007KT P6SM -SN SCT020 OVC035
      TEMPO 2810/2814 5SM -SN OVC012
     FM281600 33011KT P6SM SCT030=

USA.gov is the U.S. government's official web portal to all federal, state and local government web resources and services.